Time;durP1;ratioP1;P1;durP2;ratioP2;P2;SDS_P1;SDS_P2;PMS_P1;PMS_P2;Temp;Humidity;BMP_temperature;BMP_pressure;BME280_temperature;BME280_humidity;BME280_pressure;Samples;Min_cycle;Max_cycle;Signal;HPM_P1;HPM_P2
2022/05/18 00:01:01;;;;;;;;;;;;;;;13.83;100.00;151129.05;1750586;80;20279;-59
2022/05/18 00:03:35;;;;;;;;;;;;;;;13.88;100.00;151140.77;1749733;81;20932;-58
2022/05/18 00:06:03;;;;;;;;;;;;;;;13.89;100.00;151143.38;1750369;81;20171;-58
2022/05/18 00:08:35;;;;;;;;;;;;;;;13.87;100.00;151139.44;1750242;82;21295;-58
2022/05/18 00:10:59;;;;;;;;;;;;;;;13.87;100.00;151138.17;1750341;80;20642;-58
2022/05/18 00:13:26;;;;;;;;;;;;;;;13.86;100.00;151135.58;1693914;82;20464;-59
2022/05/18 00:15:53;;;;;;;;;;;;;;;13.86;100.00;151136.84;1750640;80;20460;-58
2022/05/18 00:18:20;;;;;;;;;;;;;;;13.85;100.00;151132.97;1751180;80;20155;-58
2022/05/18 00:20:47;;;;;;;;;;;;;;;13.84;100.00;151131.66;1750516;80;21207;-58
2022/05/18 00:23:14;;;;;;;;;;;;;;;13.83;100.00;151127.77;1750809;80;20440;-58
2022/05/18 00:25:40;;;;;;;;;;;;;;;13.82;100.00;151126.45;1750436;80;20182;-58
2022/05/18 00:28:07;;;;;;;;;;;;;;;13.83;100.00;151129.05;1750875;80;20178;-59
2022/05/18 00:30:34;;;;;;;;;;;;;;;13.82;100.00;151125.17;1751236;80;20467;-59
2022/05/18 00:33:03;;;;;;;;;;;;;;;13.83;100.00;151129.05;1751126;80;21170;-58
2022/05/18 00:35:30;;;;;;;;;;;;;;;13.83;100.00;151129.05;1750910;82;20126;-59
2022/05/18 00:37:57;;;;;;;;;;;;;;;13.86;100.00;151135.58;1750939;80;20162;-59
2022/05/18 00:40:23;;;;;;;;;;;;;;;13.87;100.00;151138.17;1751131;82;20497;-59
2022/05/18 00:42:50;;;;;;;;;;;;;;;13.87;100.00;151138.17;1750956;80;20229;-59
2022/05/18 00:45:17;;;;;;;;;;;;;;;13.88;100.00;151140.77;1750850;80;21732;-58
2022/05/18 00:47:44;;;;;;;;;;;;;;;13.87;100.00;151138.17;1750399;80;20200;-59
2022/05/18 00:50:23;;;;;;;;;;;;;;;13.86;100.00;151136.84;1751134;80;20174;-58
2022/05/18 00:53:05;;;;;;;;;;;;;;;13.83;100.00;151129.05;1750548;82;20178;-60
2022/05/18 00:55:35;;;;;;;;;;;;;;;13.79;100.00;151117.33;1750974;80;20479;-60
2022/05/18 00:58:09;;;;;;;;;;;;;;;13.78;100.00;151116.06;1764619;81;21202;-59
2022/05/18 01:00:35;;;;;;;;;;;;;;;13.76;100.00;151110.86;1764342;80;20209;-59
2022/05/18 01:03:12;;;;;;;;;;;;;;;13.78;100.00;151116.06;1764593;80;20197;-58
2022/05/18 01:05:40;;;;;;;;;;;;;;;13.78;100.00;151114.72;1764229;80;20213;-59
2022/05/18 01:08:07;;;;;;;;;;;;;;;13.81;100.00;151123.84;1764702;81;20231;-58
2022/05/18 01:10:34;;;;;;;;;;;;;;;13.83;100.00;151129.05;1764794;80;21233;-58
2022/05/18 01:13:02;;;;;;;;;;;;;;;13.86;100.00;151135.58;1764252;81;20624;-59
2022/05/18 01:15:32;;;;;;;;;;;;;;;13.86;100.00;151136.84;1764420;81;20231;-59
2022/05/18 01:17:59;;;;;;;;;;;;;;;13.84;100.00;151130.38;1764128;80;20253;-58
2022/05/18 01:20:28;;;;;;;;;;;;;;;13.82;100.00;151126.45;1764185;81;20165;-58
2022/05/18 01:23:17;;;;;;;;;;;;;;;13.81;100.00;151122.53;1763891;80;21215;-59
2022/05/18 01:25:50;;;;;;;;;;;;;;;13.79;100.00;151117.33;1763927;81;21358;-59
2022/05/18 01:28:18;;;;;;;;;;;;;;;13.75;100.00;151109.53;1763978;80;20475;-59
2022/05/18 01:30:48;;;;;;;;;;;;;;;13.72;100.00;151101.73;1764155;80;20211;-58
2022/05/18 01:33:17;;;;;;;;;;;;;;;13.73;100.00;151103.06;1764396;80;20195;-59
2022/05/18 01:35:45;;;;;;;;;;;;;;;13.70;100.00;151096.53;1764337;81;21182;-58
2022/05/18 01:38:13;;;;;;;;;;;;;;;13.72;100.00;151101.73;1764339;80;20119;-58
2022/05/18 01:40:57;;;;;;;;;;;;;;;13.73;100.00;151104.34;1763919;80;20464;-59
2022/05/18 01:43:33;;;;;;;;;;;;;;;13.77;100.00;151113.45;1763813;80;20176;-58
2022/05/18 01:46:01;;;;;;;;;;;;;;;13.80;100.00;151121.25;1763209;80;20192;-60
2022/05/18 01:48:31;;;;;;;;;;;;;;;13.80;100.00;151119.92;1762899;80;20688;-60
2022/05/18 01:50:59;;;;;;;;;;;;;;;13.79;100.00;151117.33;1763656;80;20203;-58
2022/05/18 01:53:26;;;;;;;;;;;;;;;13.77;100.00;151113.45;1763413;80;20469;-58
2022/05/18 01:55:57;;;;;;;;;;;;;;;13.77;100.00;151112.13;1762647;80;20191;-58
2022/05/18 01:58:24;;;;;;;;;;;;;;;13.74;100.00;151106.94;1749896;81;20198;-59
2022/05/18 02:00:51;;;;;;;;;;;;;;;13.73;100.00;151104.34;1750384;82;21220;-58
2022/05/18 02:03:18;;;;;;;;;;;;;;;13.73;100.00;151103.06;1750318;81;20527;-58
2022/05/18 02:05:45;;;;;;;;;;;;;;;13.71;100.00;151097.86;1750408;81;20136;-59
2022/05/18 02:08:15;;;;;;;;;;;;;;;13.69;100.00;151093.94;1750413;82;20168;-58
2022/05/18 02:10:44;;;;;;;;;;;;;;;13.70;100.00;151095.22;1750514;81;20738;-58
2022/05/18 02:13:11;;;;;;;;;;;;;;;13.72;100.00;151101.73;1750723;80;21917;-59
2022/05/18 02:15:38;;;;;;;;;;;;;;;13.71;100.00;151099.14;1750510;80;20206;-59
2022/05/18 02:18:05;;;;;;;;;;;;;;;13.70;99.29;151096.53;1750340;80;20185;-58
2022/05/18 02:20:31;;;;;;;;;;;;;;;13.69;99.10;151093.94;1750006;80;20509;-59
2022/05/18 02:22:58;;;;;;;;;;;;;;;13.69;98.61;151092.61;1750322;82;20209;-60
2022/05/18 02:25:26;;;;;;;;;;;;;;;13.69;97.57;151092.61;1750188;80;21376;-59
2022/05/18 02:27:55;;;;;;;;;;;;;;;13.67;96.29;151088.75;1750428;82;20540;-59
2022/05/18 02:30:21;;;;;;;;;;;;;;;13.69;94.22;151092.61;1750585;82;20166;-59
2022/05/18 02:32:48;;;;;;;;;;;;;;;13.69;93.27;151093.94;1750556;80;20437;-59
2022/05/18 02:35:15;;;;;;;;;;;;;;;13.73;92.67;151104.34;1751023;80;20471;-59
2022/05/18 02:37:43;;;;;;;;;;;;;;;13.73;91.74;151104.34;1750134;82;21212;-60
2022/05/18 02:40:10;;;;;;;;;;;;;;;13.71;90.28;151097.86;1753863;80;20137;-59
2022/05/18 02:42:37;;;;;;;;;;;;;;;13.68;88.66;151091.34;1769266;81;20469;-59
2022/05/18 02:45:05;;;;;;;;;;;;;;;13.67;87.18;151088.75;1768979;81;20168;-59
2022/05/18 02:47:33;;;;;;;;;;;;;;;13.67;84.22;151087.41;1769042;81;20596;-60
2022/05/18 02:49:59;;;;;;;;;;;;;;;13.63;79.23;151077.03;1768729;81;21131;-60
2022/05/18 02:52:26;;;;;;;;;;;;;;;13.62;76.05;151075.75;1768805;81;20179;-59
2022/05/18 02:57:39;;;;;;;;;;;;;;;13.62;74.22;151075.75;1766983;79;20623;-58
2022/05/18 03:00:07;;;;;;;;;;;;;;;13.58;74.79;151065.31;1766759;81;20189;-60
2022/05/18 03:02:35;;;;;;;;;;;;;;;13.54;75.40;151054.91;1766356;81;21242;-59
2022/05/18 03:05:02;;;;;;;;;;;;;;;13.48;75.04;151039.31;1766824;81;20208;-59
2022/05/18 03:07:29;;;;;;;;;;;;;;;13.42;74.66;151024.95;1766478;81;20208;-60
2022/05/18 03:09:55;;;;;;;;;;;;;;;13.36;75.09;151009.38;1766477;81;20191;-59
2022/05/18 03:12:23;;;;;;;;;;;;;;;13.29;74.53;150993.78;1754425;81;20230;-58
2022/05/18 03:14:50;;;;;;;;;;;;;;;13.23;74.65;150978.14;1749037;81;21200;-59
2022/05/18 03:17:16;;;;;;;;;;;;;;;13.18;74.04;150966.47;1749423;81;20086;-59
2022/05/18 03:19:45;;;;;;;;;;;;;;;13.12;72.62;150950.84;1748894;82;20190;-60
2022/05/18 03:24:58;;;;;;;;;;;;;;;13.03;71.95;150927.45;1748834;82;20482;-59
2022/05/18 03:27:25;;;;;;;;;;;;;;;12.98;70.94;150914.47;1748225;81;22135;-59
2022/05/18 03:29:52;;;;;;;;;;;;;;;12.92;70.90;150898.83;1747896;82;20530;-60
2022/05/18 03:32:22;;;;;;;;;;;;;;;12.83;70.49;150878.06;1748698;82;20499;-59
2022/05/18 03:34:49;;;;;;;;;;;;;;;12.78;70.61;150865.06;1748700;82;20240;-60
2022/05/18 03:37:17;;;;;;;;;;;;;;;12.71;70.09;150848.16;1749109;81;20171;-60
2022/05/18 03:39:45;;;;;;;;;;;;;;;12.67;70.28;150836.45;1748897;82;21227;-59
2022/05/18 03:42:12;;;;;;;;;;;;;;;12.64;69.31;150828.66;1721116;83;20488;-59
2022/05/18 03:44:38;;;;;;;;;;;;;;;12.60;69.31;150820.88;1720848;83;20574;-60
2022/05/18 03:47:06;;;;;;;;;;;;;;;12.56;69.16;150810.48;1721061;82;20456;-60
2022/05/18 03:49:33;;;;;;;;;;;;;;;12.51;69.25;150796.17;1721329;83;20915;-59
2022/05/18 03:52:00;;;;;;;;;;;;;;;12.47;68.78;150787.06;1720258;82;21125;-59
2022/05/18 03:54:27;;;;;;;;;;;;;;;12.43;69.14;150778.00;1720064;82;20320;-59
2022/05/18 03:56:54;;;;;;;;;;;;;;;12.40;69.38;150768.89;1719586;80;20238;-60
2022/05/18 03:59:21;;;;;;;;;;;;;;;12.36;69.62;150758.50;1719693;83;20176;-60
2022/05/18 04:01:48;;;;;;;;;;;;;;;12.32;68.79;150750.72;1720105;82;20154;-60
2022/05/18 04:04:14;;;;;;;;;;;;;;;12.31;68.80;150748.11;1720155;83;21267;-60
2022/05/18 04:06:42;;;;;;;;;;;;;;;12.29;68.16;150742.92;1719616;83;20206;-61
2022/05/18 04:09:10;;;;;;;;;;;;;;;12.30;67.70;150745.52;1720879;82;20179;-60
2022/05/18 04:11:37;;;;;;;;;;;;;;;12.29;66.89;150742.92;1732754;82;20617;-60
2022/05/18 04:14:04;;;;;;;;;;;;;;;12.27;65.74;150737.73;1750652;80;20181;-60
2022/05/18 04:16:31;;;;;;;;;;;;;;;12.25;66.21;150731.22;1750480;82;21123;-61
2022/05/18 04:18:57;;;;;;;;;;;;;;;12.22;66.20;150724.70;1750585;80;20221;-61
2022/05/18 04:21:24;;;;;;;;;;;;;;;12.20;66.45;150718.23;1750815;82;20189;-61
2022/05/18 04:23:51;;;;;;;;;;;;;;;12.17;66.45;150711.72;1750293;80;20170;-61
2022/05/18 04:26:18;;;;;;;;;;;;;;;12.15;66.47;150706.53;1750825;80;20178;-60
2022/05/18 04:28:45;;;;;;;;;;;;;;;12.13;66.55;150702.61;1750929;80;21186;-61
2022/05/18 04:31:13;;;;;;;;;;;;;;;12.11;66.11;150696.14;1750743;82;20202;-61
2022/05/18 04:33:40;;;;;;;;;;;;;;;12.07;65.84;150685.77;1750480;80;20213;-61
2022/05/18 04:36:07;;;;;;;;;;;;;;;12.04;65.40;150680.53;1750529;80;20193;-60
2022/05/18 04:38:34;;;;;;;;;;;;;;;12.04;64.61;150680.53;1750193;82;20489;-61
2022/05/18 04:41:02;;;;;;;;;;;;;;;12.06;64.51;150683.16;1760176;80;21095;-60
2022/05/18 04:43:32;;;;;;;;;;;;;;;12.07;63.72;150685.77;1768534;81;20193;-61
2022/05/18 04:45:57;;;;;;;;;;;;;;;12.12;62.98;150698.73;1768971;81;20235;-59
2022/05/18 04:48:26;;;;;;;;;;;;;;;12.16;61.98;150709.13;1768755;81;20275;-58
2022/05/18 04:50:53;;;;;;;;;;;;;;;12.20;61.29;150719.50;1768940;81;20720;-59
2022/05/18 04:53:19;;;;;;;;;;;;;;;12.26;60.47;150733.81;1769170;81;21277;-59
2022/05/18 04:55:47;;;;;;;;;;;;;;;12.28;59.54;150740.33;1768658;81;20176;-59
2022/05/18 04:58:14;;;;;;;;;;;;;;;12.31;59.02;150748.11;1767780;78;20213;-59
2022/05/18 05:00:41;;;;;;;;;;;;;;;12.36;58.27;150758.50;1766687;81;20188;-58
2022/05/18 05:03:08;;;;;;;;;;;;;;;12.39;57.95;150767.61;1766600;81;20176;-58
2022/05/18 05:05:34;;;;;;;;;;;;;;;12.41;57.74;150771.48;1766790;81;21195;-59
2022/05/18 05:08:02;;;;;;;;;;;;;;;12.38;56.94;150765.02;1766593;81;20196;-59
2022/05/18 05:10:29;;;;;;;;;;;;;;;12.37;56.84;150761.09;1766624;81;20172;-59
2022/05/18 05:12:57;;;;;;;;;;;;;;;12.37;55.74;150762.38;1750518;81;20394;-60
2022/05/18 05:15:23;;;;;;;;;;;;;;;12.39;56.09;150767.61;1749454;81;20135;-60
2022/05/18 05:17:51;;;;;;;;;;;;;;;12.40;54.81;150768.89;1749350;81;21268;-60
2022/05/18 05:20:17;;;;;;;;;;;;;;;12.38;53.27;150763.69;1749591;81;20163;-59
2022/05/18 05:22:44;;;;;;;;;;;;;;;12.37;52.79;150761.09;1749112;82;20206;-59
2022/05/18 05:25:14;;;;;;;;;;;;;;;12.34;52.01;150753.31;1749286;81;20496;-58
2022/05/18 05:27:41;;;;;;;;;;;;;;;12.29;50.89;150742.92;1748780;81;20185;-59
2022/05/18 05:30:10;;;;;;;;;;;;;;;12.24;51.07;150729.89;1749267;81;21130;-59
2022/05/18 05:32:38;;;;;;;;;;;;;;;12.22;51.64;150724.70;1749826;81;20335;-60
2022/05/18 05:35:05;;;;;;;;;;;;;;;12.22;51.49;150723.44;1748921;81;20210;-61
2022/05/18 05:37:32;;;;;;;;;;;;;;;12.20;51.14;150719.50;1748930;82;20233;-61
2022/05/18 05:39:59;;;;;;;;;;;;;;;12.19;51.29;150716.91;1750538;81;20178;-58
2022/05/18 05:42:26;;;;;;;;;;;;;;;12.16;51.38;150710.44;1766154;81;21239;-60
2022/05/18 05:44:53;;;;;;;;;;;;;;;12.16;51.36;150709.13;1765960;81;20448;-60
2022/05/18 05:47:19;;;;;;;;;;;;;;;12.15;51.71;150706.53;1766421;81;20204;-60
2022/05/18 05:49:46;;;;;;;;;;;;;;;12.14;50.78;150703.94;1765777;80;20394;-60
2022/05/18 05:52:13;;;;;;;;;;;;;;;12.12;50.32;150698.73;1766454;81;20144;-59
2022/05/18 05:54:40;;;;;;;;;;;;;;;12.09;49.74;150692.22;1736285;81;21416;-59
2022/05/18 05:57:07;;;;;;;;;;;;;;;12.06;49.83;150683.16;1766465;81;20215;-60
2022/05/18 05:59:41;;;;;;;;;;;;;;;12.07;50.00;150685.77;1754538;78;20231;-60
2022/05/18 06:02:15;;;;;;;;;;;;;;;12.06;50.15;150684.44;1703114;83;20452;-60
2022/05/18 06:04:43;;;;;;;;;;;;;;;12.07;49.88;150685.77;1750512;82;20192;-60
2022/05/18 06:07:10;;;;;;;;;;;;;;;12.07;50.38;150685.77;1750884;82;21196;-60
2022/05/18 06:09:37;;;;;;;;;;;;;;;12.08;50.60;150689.63;1750734;82;20286;-60
2022/05/18 06:12:04;;;;;;;;;;;;;;;12.10;50.59;150694.83;1733856;82;20201;-60
2022/05/18 06:14:31;;;;;;;;;;;;;;;12.12;50.72;150700.02;1690502;84;20642;-60
2022/05/18 06:16:59;;;;;;;;;;;;;;;12.14;50.09;150703.94;1720870;82;20290;-60
2022/05/18 06:19:26;;;;;;;;;;;;;;;12.14;49.76;150703.94;1723277;83;22351;-60
2022/05/18 06:21:52;;;;;;;;;;;;;;;12.14;49.67;150703.94;1722810;83;20264;-60
2022/05/18 06:24:19;;;;;;;;;;;;;;;12.17;49.88;150711.72;1723145;83;20164;-60
2022/05/18 06:26:46;;;;;;;;;;;;;;;12.20;49.80;150719.50;1722774;82;20199;-61
2022/05/18 06:29:13;;;;;;;;;;;;;;;12.23;49.35;150726.03;1723286;82;20239;-61
2022/05/18 06:31:40;;;;;;;;;;;;;;;12.24;49.49;150728.63;1722847;82;21228;-60
2022/05/18 06:34:07;;;;;;;;;;;;;;;12.25;49.14;150732.50;1723026;82;20200;-59
2022/05/18 06:36:34;;;;;;;;;;;;;;;12.30;48.66;150745.52;1722768;82;20207;-60
2022/05/18 06:39:03;;;;;;;;;;;;;;;12.36;48.65;150758.50;1722977;83;20866;-60
2022/05/18 06:41:31;;;;;;;;;;;;;;;12.45;48.52;150781.88;1704706;81;20454;-61
2022/05/18 06:44:02;;;;;;;;;;;;;;;12.50;49.24;150794.91;1725163;81;21583;-61
2022/05/18 06:46:29;;;;;;;;;;;;;;;12.58;50.08;150815.67;1733788;81;20207;-61
2022/05/18 06:48:56;;;;;;;;;;;;;;;12.69;50.86;150841.64;1740338;80;20471;-60
2022/05/18 06:51:29;;;;;;;;;;;;;;;12.78;50.17;150865.06;1730769;80;20412;-60
2022/05/18 06:53:56;;;;;;;;;;;;;;;12.82;49.14;150874.13;1734465;80;20227;-61
2022/05/18 06:56:25;;;;;;;;;;;;;;;12.81;48.04;150872.86;1738601;80;21226;-60
2022/05/18 06:58:52;;;;;;;;;;;;;;;12.76;48.62;150859.88;1772324;79;20196;-60
2022/05/18 07:01:19;;;;;;;;;;;;;;;12.77;49.33;150862.47;1791343;80;20690;-60
2022/05/18 07:03:46;;;;;;;;;;;;;;;12.82;49.56;150875.45;1792584;79;20741;-61
2022/05/18 07:06:16;;;;;;;;;;;;;;;12.89;49.41;150893.64;1784499;78;20175;-59
2022/05/18 07:08:43;;;;;;;;;;;;;;;12.96;49.18;150910.55;1795764;78;21277;-59
2022/05/18 07:11:09;;;;;;;;;;;;;;;12.97;47.92;150911.87;1805177;79;20462;-61
2022/05/18 07:13:36;;;;;;;;;;;;;;;12.94;47.62;150904.08;1795902;79;20215;-59
2022/05/18 07:16:04;;;;;;;;;;;;;;;12.95;47.74;150906.67;1771560;79;20177;-61
2022/05/18 07:18:32;;;;;;;;;;;;;;;12.94;47.71;150905.36;1759642;78;20583;-61
2022/05/18 07:21:02;;;;;;;;;;;;;;;12.87;47.42;150888.44;1781149;78;21761;-60
2022/05/18 07:23:29;;;;;;;;;;;;;;;12.84;47.50;150880.66;1781723;78;20217;-61
2022/05/18 07:25:56;;;;;;;;;;;;;;;12.81;48.18;150872.86;1784233;78;20199;-60
2022/05/18 07:28:23;;;;;;;;;;;;;;;12.82;48.37;150875.45;1785554;80;20168;-60
2022/05/18 07:30:50;;;;;;;;;;;;;;;12.82;48.69;150874.13;1785515;80;20188;-60
2022/05/18 07:33:17;;;;;;;;;;;;;;;12.81;48.59;150871.53;1785587;80;21291;-60
2022/05/18 07:35:44;;;;;;;;;;;;;;;12.81;49.05;150871.53;1797191;79;20217;-61
2022/05/18 07:38:13;;;;;;;;;;;;;;;12.86;48.75;150885.84;1787787;79;20626;-61
2022/05/18 07:40:42;;;;;;;;;;;;;;;12.98;48.46;150915.75;1778996;79;20145;-60
2022/05/18 07:43:09;;;;;;;;;;;;;;;13.17;49.16;150963.88;1774055;78;20203;-60
2022/05/18 07:45:37;;;;;;;;;;;;;;;13.43;48.35;151028.92;1771934;78;21229;-60
2022/05/18 07:48:04;;;;;;;;;;;;;;;13.69;47.80;151092.61;1794879;78;20511;-60
2022/05/18 07:50:32;;;;;;;;;;;;;;;13.96;46.58;151161.56;1785443;80;20457;-60
2022/05/18 07:52:59;;;;;;;;;;;;;;;14.14;45.67;151205.81;1784359;79;20517;-62
2022/05/18 07:55:26;;;;;;;;;;;;;;;14.25;44.61;151233.13;1786265;79;20084;-60
2022/05/18 07:57:53;;;;;;;;;;;;;;;14.28;44.26;151242.25;1785373;79;21147;-60
2022/05/18 08:00:21;;;;;;;;;;;;;;;14.36;44.34;151260.45;1803138;79;20255;-62
2022/05/18 08:02:48;;;;;;;;;;;;;;;14.48;45.02;151291.70;1796766;79;20166;-61
2022/05/18 08:05:15;;;;;;;;;;;;;;;14.64;44.12;151330.70;1797127;79;20179;-60
2022/05/18 08:07:45;;;;;;;;;;;;;;;14.70;43.61;151346.31;1796577;79;20199;-60
2022/05/18 08:15:43;;;;;;;;;;;;;;;15.01;43.49;151424.48;1791469;78;20954;-60
2022/05/18 08:18:15;;;;;;;;;;;;;;;15.15;43.75;151460.95;1796276;79;20203;-61
2022/05/18 08:20:40;;;;;;;;;;;;;;;15.29;42.67;151494.78;1795565;79;20689;-61
2022/05/18 08:23:06;;;;;;;;;;;;;;;15.36;41.82;151512.98;1797022;78;21277;-62
2022/05/18 08:25:34;;;;;;;;;;;;;;;15.36;42.28;151512.98;1796478;79;20247;-59
2022/05/18 08:28:01;;;;;;;;;;;;;;;15.39;40.85;151520.84;1796472;79;20515;-61
2022/05/18 08:30:30;;;;;;;;;;;;;;;15.36;40.85;151512.98;1798342;78;20229;-61
2022/05/18 08:32:59;;;;;;;;;;;;;;;15.38;41.55;151518.23;1790708;79;36463;-61
2022/05/18 08:35:27;;;;;;;;;;;;;;;15.49;42.10;151544.25;1763618;81;20592;-61
2022/05/18 08:37:54;;;;;;;;;;;;;;;15.54;40.01;151557.27;1763313;81;20201;-61
2022/05/18 08:40:40;;;;;;;;;;;;;;;15.50;40.96;151548.19;1775406;78;20174;-61
2022/05/18 08:43:08;;;;;;;;;;;;;;;15.60;39.62;151572.94;1794974;78;20736;-60
2022/05/18 08:45:39;;;;;;;;;;;;;;;15.60;38.64;151572.94;1796140;78;20148;-61
2022/05/18 08:48:20;;;;;;;;;;;;;;;15.57;39.24;151565.08;1792667;79;20758;-61
2022/05/18 08:50:48;;;;;;;;;;;;;;;15.56;39.90;151563.80;1798600;78;20187;-62
2022/05/18 08:53:41;;;;;;;;;;;;;;;15.60;39.35;151574.22;1796846;79;20234;-61
2022/05/18 08:56:11;;;;;;;;;;;;;;;15.66;39.54;151587.22;1768729;78;20178;-61
2022/05/18 08:58:44;;;;;;;;;;;;;;;15.74;39.66;151609.36;1779544;78;20230;-60
2022/05/18 09:01:23;;;;;;;;;;;;;;;15.80;38.31;151623.70;1732619;82;21126;-61
2022/05/18 09:03:59;;;;;;;;;;;;;;;15.69;38.04;151596.34;1755576;79;20206;-61
2022/05/18 09:06:38;;;;;;;;;;;;;;;15.72;38.52;151604.16;1768107;79;20176;-61
2022/05/18 09:11:57;;;;;;;;;;;;;;;15.78;37.95;151617.17;1740033;80;20215;-60
2022/05/18 09:14:24;;;;;;;;;;;;;;;15.73;38.22;151606.77;1726775;83;21164;-60
2022/05/18 09:17:01;;;;;;;;;;;;;;;15.86;38.19;151638.05;1740762;80;20331;-61
2022/05/18 09:19:37;;;;;;;;;;;;;;;15.94;37.52;151658.91;1758621;79;20162;-61
2022/05/18 09:22:31;;;;;;;;;;;;;;;15.97;37.79;151666.72;1757311;79;20248;-61
2022/05/18 09:25:25;;;;;;;;;;;;;;;16.01;38.03;151677.13;1758766;79;20209;-60
2022/05/18 09:28:09;;;;;;;;;;;;;;;15.97;37.95;151666.72;1757819;81;21128;-61
2022/05/18 09:31:13;;;;;;;;;;;;;;;15.79;37.95;151619.78;1757932;81;20459;-61
2022/05/18 09:33:46;;;;;;;;;;;;;;;15.60;38.90;151572.94;1750150;79;20430;-61
2022/05/18 09:36:19;;;;;;;;;;;;;;;15.62;39.49;151578.12;1741159;82;20187;-61
2022/05/18 09:39:08;;;;;;;;;;;;;;;15.75;39.50;151610.69;1741573;81;20208;-61
2022/05/18 09:41:48;;;;;;;;;;;;;;;15.69;39.59;151595.03;1785787;78;21230;-60
2022/05/18 09:44:23;;;;;;;;;;;;;;;15.62;39.79;151578.12;1786004;78;20554;-61
2022/05/18 09:46:50;;;;;;;;;;;;;;;15.55;39.21;151559.88;1754105;80;20170;-61
2022/05/18 09:49:36;;;;;;;;;;;;;;;15.49;39.66;151544.25;1768370;79;20638;-62
2022/05/18 09:52:03;;;;;;;;;;;;;;;15.52;39.98;151552.06;1773093;79;20223;-61
2022/05/18 09:54:31;;;;;;;;;;;;;;;15.41;39.31;151524.72;1783257;79;21292;-60
2022/05/18 09:57:07;;;;;;;;;;;;;;;15.30;39.68;151498.70;1742278;79;20247;-60
2022/05/18 09:59:40;;;;;;;;;;;;;;;15.35;39.66;151509.11;1736834;82;20262;-61
2022/05/18 10:07:47;;;;;;;;;;;;;;;15.65;38.44;151585.94;1771794;79;21144;-61
2022/05/18 10:10:16;;;;;;;;;;;;;;;15.69;38.57;151595.03;1777163;79;20189;-61
2022/05/18 10:12:46;;;;;;;;;;;;;;;15.84;38.38;151632.84;1739600;81;20208;-61
2022/05/18 10:15:22;;;;;;;;;;;;;;;15.90;38.00;151649.78;1726591;82;20231;-62
2022/05/18 10:17:51;;;;;;;;;;;;;;;15.85;37.76;151635.44;1733031;81;20338;-61
2022/05/18 10:20:28;;;;;;;;;;;;;;;15.72;38.04;151604.16;1734546;82;21241;-60
2022/05/18 10:22:55;;;;;;;;;;;;;;;15.60;37.34;151572.94;1733579;82;20349;-61
2022/05/18 10:25:37;;;;;;;;;;;;;;;15.50;37.06;151548.19;1734794;82;20204;-61
2022/05/18 10:28:22;;;;;;;;;;;;;;;15.49;36.02;151545.58;1734092;81;20639;-61
2022/05/18 10:31:02;;;;;;;;;;;;;;;15.53;36.64;151554.66;1734783;81;20199;-60
2022/05/18 10:33:32;;;;;;;;;;;;;;;15.66;35.05;151587.22;1735368;81;21095;-65
2022/05/18 10:36:25;;;;;;;;;;;;;;;15.81;34.18;151625.03;1734954;81;20207;-60
2022/05/18 10:39:00;;;;;;;;;;;;;;;15.87;34.41;151640.64;1752346;79;20201;-64
2022/05/18 10:41:32;;;;;;;;;;;;;;;15.90;34.63;151648.50;1768115;79;20097;-65
2022/05/18 10:44:07;;;;;;;;;;;;;;;15.89;34.83;151647.17;1762367;79;20177;-63
2022/05/18 10:46:39;;;;;;;;;;;;;;;15.91;35.30;151651.11;1763377;79;21234;-60
2022/05/18 10:49:10;;;;;;;;;;;;;;;15.92;35.47;151652.44;1764687;79;20201;-61
2022/05/18 10:51:43;;;;;;;;;;;;;;;15.84;34.91;151634.11;1758897;79;20194;-63
2022/05/18 10:54:23;;;;;;;;;;;;;;;15.74;33.68;151609.36;1759061;79;20244;-61
2022/05/18 10:56:50;;;;;;;;;;;;;;;15.66;33.56;151588.55;1752312;79;20173;-60
2022/05/18 10:59:29;;;;;;;;;;;;;;;15.72;33.87;151604.16;1775115;79;22221;-61
2022/05/18 11:02:13;;;;;;;;;;;;;;;15.85;33.06;151635.44;1736345;80;21065;-65
2022/05/18 11:04:51;;;;;;;;;;;;;;;16.03;33.74;151682.39;1733568;81;20489;-61
2022/05/18 11:07:20;;;;;;;;;;;;;;;16.18;34.07;151718.84;1716913;82;20457;-63
2022/05/18 11:09:47;;;;;;;;;;;;;;;16.14;34.63;151709.75;1733411;80;20507;-63
2022/05/18 11:12:34;;;;;;;;;;;;;;;15.97;34.90;151666.72;1728825;80;21203;-64
2022/05/18 11:15:09;;;;;;;;;;;;;;;15.84;33.90;151632.84;1733980;80;20222;-61
2022/05/18 11:18:09;;;;;;;;;;;;;;;15.69;33.11;151595.03;1733404;80;20451;-62
2022/05/18 11:21:00;;;;;;;;;;;;;;;15.71;34.08;151601.56;1614147;86;20542;-61
2022/05/18 11:23:39;;;;;;;;;;;;;;;15.90;33.10;151648.50;1725400;81;20375;-61
2022/05/18 11:26:16;;;;;;;;;;;;;;;15.98;33.00;151669.33;1716044;82;21898;-60
2022/05/18 11:29:01;;;;;;;;;;;;;;;16.12;32.01;151703.22;1738389;80;20447;-65
2022/05/18 11:31:52;;;;;;;;;;;;;;;16.15;31.70;151711.03;1736789;80;20212;-64
2022/05/18 11:34:24;;;;;;;;;;;;;;;16.19;32.50;151721.44;1738295;80;20511;-64
2022/05/18 11:37:07;;;;;;;;;;;;;;;16.20;33.00;151724.03;1737252;80;20551;-63
2022/05/18 11:39:37;;;;;;;;;;;;;;;16.16;32.76;151713.62;1726079;80;21132;-61
2022/05/18 11:42:20;;;;;;;;;;;;;;;16.18;32.96;151718.84;1738679;82;20373;-63
2022/05/18 11:44:59;;;;;;;;;;;;;;;16.17;31.54;151716.22;1690453;82;20179;-64
2022/05/18 11:47:35;;;;;;;;;;;;;;;16.00;31.58;151674.53;1728472;80;20202;-63
2022/05/18 11:50:25;;;;;;;;;;;;;;;15.86;32.43;151638.05;1730545;81;20476;-64
2022/05/18 11:53:04;;;;;;;;;;;;;;;15.82;32.14;151627.63;1742374;82;21178;-61
2022/05/18 11:55:47;;;;;;;;;;;;;;;15.88;32.62;151644.58;1735171;82;20815;-61
2022/05/18 11:58:26;;;;;;;;;;;;;;;15.82;32.49;151627.63;1730451;81;20198;-64
2022/05/18 12:01:01;;;;;;;;;;;;;;;15.74;33.04;151609.36;1745163;80;20235;-60
2022/05/18 12:03:34;;;;;;;;;;;;;;;15.74;32.30;151609.36;1746361;80;20297;-64
2022/05/18 12:06:10;;;;;;;;;;;;;;;15.71;32.37;151601.56;1750719;80;21061;-64
2022/05/18 12:08:41;;;;;;;;;;;;;;;15.70;32.99;151598.95;1752205;80;20206;-60
2022/05/18 12:11:36;;;;;;;;;;;;;;;15.77;32.29;151615.89;1749511;80;20560;-63
2022/05/18 12:14:10;;;;;;;;;;;;;;;15.79;32.70;151621.09;1667577;84;21103;-65
2022/05/18 12:16:57;;;;;;;;;;;;;;;15.94;32.45;151658.91;1696560;83;20227;-60
2022/05/18 12:19:44;;;;;;;;;;;;;;;16.05;33.25;151686.28;1714446;79;21136;-60
2022/05/18 12:22:22;;;;;;;;;;;;;;;16.01;33.62;151677.13;1733558;80;20245;-65
2022/05/18 12:24:49;;;;;;;;;;;;;;;15.85;33.78;151635.44;1758312;79;20208;-61
2022/05/18 12:27:17;;;;;;;;;;;;;;;15.84;33.55;151634.11;1754559;79;20220;-62
2022/05/18 12:29:45;;;;;;;;;;;;;;;15.84;34.03;151632.84;1747975;79;20179;-61
2022/05/18 12:32:14;;;;;;;;;;;;;;;15.78;34.64;151618.50;1753777;79;21115;-61
2022/05/18 12:35:07;;;;;;;;;;;;;;;15.69;34.89;151596.34;1753668;79;20972;-61
2022/05/18 12:37:37;;;;;;;;;;;;;;;15.55;34.88;151559.88;1748197;79;20216;-62
2022/05/18 12:40:07;;;;;;;;;;;;;;;15.38;35.19;151518.23;1754498;79;20188;-61
2022/05/18 12:42:36;;;;;;;;;;;;;;;15.33;34.82;151505.19;1751424;79;20438;-60
2022/05/18 12:45:13;;;;;;;;;;;;;;;15.31;34.50;151499.97;1749922;79;21267;-60
2022/05/18 12:47:45;;;;;;;;;;;;;;;15.26;36.20;151486.97;1750639;79;21299;-60
2022/05/18 12:50:16;;;;;;;;;;;;;;;15.14;38.74;151458.34;1748961;79;21266;-61
2022/05/18 12:52:55;;;;;;;;;;;;;;;14.94;39.83;151406.28;1751417;79;20146;-61
2022/05/18 12:55:40;;;;;;;;;;;;;;;14.80;40.52;151372.41;1748268;81;20165;-60
2022/05/18 12:58:15;;;;;;;;;;;;;;;14.67;41.68;151338.50;1733554;79;21241;-63
2022/05/18 13:01:09;;;;;;;;;;;;;;;14.45;41.83;151285.17;1759854;79;20283;-63
2022/05/18 13:04:10;;;;;;;;;;;;;;;14.29;43.20;151244.84;1772469;79;20196;-63
2022/05/18 13:06:40;;;;;;;;;;;;;;;14.23;42.21;151229.20;1762012;79;20294;-65
2022/05/18 13:09:30;;;;;;;;;;;;;;;14.18;40.94;151216.20;1739218;80;20223;-64
2022/05/18 13:12:26;;;;;;;;;;;;;;;14.16;40.54;151212.33;1768087;79;21091;-65
2022/05/18 13:15:07;;;;;;;;;;;;;;;14.17;40.58;151213.59;1792577;78;20167;-64